sensor_id;sensor_type;location;lat;lon;timestamp;temperature;humidity
47825;DHT22;33589;48.242;14.676;2023-05-27T00:01:46;21.00;58.60
47825;DHT22;33589;48.242;14.676;2023-05-27T00:04:11;21.00;58.70
47825;DHT22;33589;48.242;14.676;2023-05-27T00:06:37;20.90;58.60
47825;DHT22;33589;48.242;14.676;2023-05-27T00:09:03;21.00;58.80
47825;DHT22;33589;48.242;14.676;2023-05-27T00:11:29;20.90;58.80
47825;DHT22;33589;48.242;14.676;2023-05-27T00:13:55;20.90;58.60
47825;DHT22;33589;48.242;14.676;2023-05-27T00:16:21;20.90;58.70
47825;DHT22;33589;48.242;14.676;2023-05-27T00:18:47;20.90;58.70
47825;DHT22;33589;48.242;14.676;2023-05-27T00:21:13;20.90;58.90
47825;DHT22;33589;48.242;14.676;2023-05-27T00:23:39;20.90;58.80
47825;DHT22;33589;48.242;14.676;2023-05-27T00:26:05;20.90;59.00
47825;DHT22;33589;48.242;14.676;2023-05-27T00:28:30;20.80;58.80
47825;DHT22;33589;48.242;14.676;2023-05-27T00:30:57;20.80;59.10
47825;DHT22;33589;48.242;14.676;2023-05-27T00:33:23;20.80;59.20
47825;DHT22;33589;48.242;14.676;2023-05-27T00:35:49;20.80;59.00
47825;DHT22;33589;48.242;14.676;2023-05-27T00:38:15;20.80;59.10
47825;DHT22;33589;48.242;14.676;2023-05-27T00:40:41;20.70;59.40
47825;DHT22;33589;48.242;14.676;2023-05-27T00:43:06;20.70;59.50
47825;DHT22;33589;48.242;14.676;2023-05-27T00:45:32;20.70;59.50
47825;DHT22;33589;48.242;14.676;2023-05-27T00:48:03;20.60;59.40
47825;DHT22;33589;48.242;14.676;2023-05-27T00:50:30;20.70;59.20
47825;DHT22;33589;48.242;14.676;2023-05-27T00:52:55;20.70;59.10
47825;DHT22;33589;48.242;14.676;2023-05-27T00:55:22;20.60;59.00
47825;DHT22;33589;48.242;14.676;2023-05-27T00:57:48;20.70;58.90
47825;DHT22;33589;48.242;14.676;2023-05-27T01:00:14;20.60;58.70
47825;DHT22;33589;48.242;14.676;2023-05-27T01:02:40;20.60;58.80
47825;DHT22;33589;48.242;14.676;2023-05-27T01:05:10;20.60;59.20
47825;DHT22;33589;48.242;14.676;2023-05-27T01:10:18;20.50;61.10
47825;DHT22;33589;48.242;14.676;2023-05-27T01:13:06;20.40;61.20
47825;DHT22;33589;48.242;14.676;2023-05-27T01:15:37;20.40;62.50
47825;DHT22;33589;48.242;14.676;2023-05-27T01:18:03;20.30;61.80
47825;DHT22;33589;48.242;14.676;2023-05-27T01:20:30;20.30;62.50
47825;DHT22;33589;48.242;14.676;2023-05-27T01:22:56;20.20;62.90
47825;DHT22;33589;48.242;14.676;2023-05-27T01:25:25;20.20;62.80
47825;DHT22;33589;48.242;14.676;2023-05-27T01:27:50;20.10;63.10
47825;DHT22;33589;48.242;14.676;2023-05-27T01:30:18;20.10;63.10
47825;DHT22;33589;48.242;14.676;2023-05-27T01:32:59;20.00;63.50
47825;DHT22;33589;48.242;14.676;2023-05-27T01:35:31;19.90;63.90
47825;DHT22;33589;48.242;14.676;2023-05-27T01:38:05;19.80;63.80
47825;DHT22;33589;48.242;14.676;2023-05-27T01:40:33;19.80;64.00
47825;DHT22;33589;48.242;14.676;2023-05-27T01:43:00;19.80;64.00
47825;DHT22;33589;48.242;14.676;2023-05-27T01:45:26;19.80;63.90
47825;DHT22;33589;48.242;14.676;2023-05-27T01:47:52;19.80;64.10
47825;DHT22;33589;48.242;14.676;2023-05-27T01:50:18;19.80;64.40
47825;DHT22;33589;48.242;14.676;2023-05-27T01:52:44;19.80;64.40
47825;DHT22;33589;48.242;14.676;2023-05-27T01:55:10;19.70;64.60
47825;DHT22;33589;48.242;14.676;2023-05-27T01:57:37;19.70;64.50
47825;DHT22;33589;48.242;14.676;2023-05-27T02:00:03;19.60;64.70
47825;DHT22;33589;48.242;14.676;2023-05-27T02:02:30;19.60;64.80
47825;DHT22;33589;48.242;14.676;2023-05-27T02:04:57;19.60;64.50
47825;DHT22;33589;48.242;14.676;2023-05-27T02:07:22;19.60;64.80
47825;DHT22;33589;48.242;14.676;2023-05-27T02:09:49;19.60;64.90
47825;DHT22;33589;48.242;14.676;2023-05-27T02:12:15;19.60;65.00
47825;DHT22;33589;48.242;14.676;2023-05-27T02:14:40;19.50;65.90
47825;DHT22;33589;48.242;14.676;2023-05-27T02:17:08;19.50;65.30
47825;DHT22;33589;48.242;14.676;2023-05-27T02:19:34;19.50;65.40
47825;DHT22;33589;48.242;14.676;2023-05-27T02:22:00;19.40;65.60
47825;DHT22;33589;48.242;14.676;2023-05-27T02:24:26;19.40;65.80
47825;DHT22;33589;48.242;14.676;2023-05-27T02:26:51;19.40;65.80
47825;DHT22;33589;48.242;14.676;2023-05-27T02:29:17;19.40;65.80
47825;DHT22;33589;48.242;14.676;2023-05-27T02:31:43;19.40;65.70
47825;DHT22;33589;48.242;14.676;2023-05-27T02:34:08;19.40;65.80
47825;DHT22;33589;48.242;14.676;2023-05-27T02:36:34;19.40;65.60
47825;DHT22;33589;48.242;14.676;2023-05-27T02:39:00;19.40;65.60
47825;DHT22;33589;48.242;14.676;2023-05-27T02:41:26;19.30;65.70
47825;DHT22;33589;48.242;14.676;2023-05-27T02:43:52;19.30;65.70
47825;DHT22;33589;48.242;14.676;2023-05-27T02:46:17;19.30;65.80
47825;DHT22;33589;48.242;14.676;2023-05-27T02:48:43;19.20;65.80
47825;DHT22;33589;48.242;14.676;2023-05-27T02:51:09;19.20;65.90
47825;DHT22;33589;48.242;14.676;2023-05-27T02:53:35;19.10;66.00
47825;DHT22;33589;48.242;14.676;2023-05-27T02:56:00;19.10;66.10
47825;DHT22;33589;48.242;14.676;2023-05-27T02:58:26;19.10;66.20
47825;DHT22;33589;48.242;14.676;2023-05-27T03:00:52;19.00;66.10
47825;DHT22;33589;48.242;14.676;2023-05-27T03:03:17;19.00;66.40
47825;DHT22;33589;48.242;14.676;2023-05-27T03:05:45;19.00;66.40
47825;DHT22;33589;48.242;14.676;2023-05-27T03:08:11;19.10;66.30
47825;DHT22;33589;48.242;14.676;2023-05-27T03:10:36;19.00;66.40
47825;DHT22;33589;48.242;14.676;2023-05-27T03:13:02;18.90;66.50
47825;DHT22;33589;48.242;14.676;2023-05-27T03:15:28;18.90;66.60
47825;DHT22;33589;48.242;14.676;2023-05-27T03:17:56;18.80;66.60
47825;DHT22;33589;48.242;14.676;2023-05-27T03:20:21;18.80;66.60
47825;DHT22;33589;48.242;14.676;2023-05-27T03:22:47;18.70;66.60
47825;DHT22;33589;48.242;14.676;2023-05-27T03:25:13;18.80;67.00
47825;DHT22;33589;48.242;14.676;2023-05-27T03:27:39;18.70;67.00
47825;DHT22;33589;48.242;14.676;2023-05-27T03:30:09;18.70;67.00
47825;DHT22;33589;48.242;14.676;2023-05-27T03:32:41;18.70;67.00
47825;DHT22;33589;48.242;14.676;2023-05-27T03:35:07;18.60;67.00
47825;DHT22;33589;48.242;14.676;2023-05-27T03:37:33;18.70;67.10
47825;DHT22;33589;48.242;14.676;2023-05-27T03:40:03;18.60;67.00
47825;DHT22;33589;48.242;14.676;2023-05-27T03:42:31;18.60;67.00
47825;DHT22;33589;48.242;14.676;2023-05-27T03:44:58;18.60;67.30
47825;DHT22;33589;48.242;14.676;2023-05-27T03:47:26;18.60;67.10
47825;DHT22;33589;48.242;14.676;2023-05-27T03:49:52;18.60;67.20
47825;DHT22;33589;48.242;14.676;2023-05-27T03:52:18;18.60;67.20
47825;DHT22;33589;48.242;14.676;2023-05-27T03:54:44;18.60;67.20
47825;DHT22;33589;48.242;14.676;2023-05-27T03:57:09;18.60;67.30
47825;DHT22;33589;48.242;14.676;2023-05-27T03:59:36;18.60;67.10
47825;DHT22;33589;48.242;14.676;2023-05-27T04:02:02;18.50;67.20
47825;DHT22;33589;48.242;14.676;2023-05-27T04:04:29;18.60;67.30
47825;DHT22;33589;48.242;14.676;2023-05-27T04:06:54;18.50;67.30
47825;DHT22;33589;48.242;14.676;2023-05-27T04:09:21;18.60;67.20
47825;DHT22;33589;48.242;14.676;2023-05-27T04:11:46;18.60;67.40
47825;DHT22;33589;48.242;14.676;2023-05-27T04:14:12;18.50;67.60
47825;DHT22;33589;48.242;14.676;2023-05-27T04:16:38;18.60;67.30
47825;DHT22;33589;48.242;14.676;2023-05-27T04:19:07;18.60;67.30
47825;DHT22;33589;48.242;14.676;2023-05-27T04:21:33;18.50;67.10
47825;DHT22;33589;48.242;14.676;2023-05-27T04:23:59;18.60;67.20
47825;DHT22;33589;48.242;14.676;2023-05-27T04:26:24;18.50;67.00
47825;DHT22;33589;48.242;14.676;2023-05-27T04:28:52;18.60;67.30
47825;DHT22;33589;48.242;14.676;2023-05-27T04:31:21;18.50;67.20
47825;DHT22;33589;48.242;14.676;2023-05-27T04:33:52;18.50;67.20
47825;DHT22;33589;48.242;14.676;2023-05-27T04:36:19;18.60;67.00
47825;DHT22;33589;48.242;14.676;2023-05-27T04:38:55;18.60;66.80
47825;DHT22;33589;48.242;14.676;2023-05-27T04:41:22;18.70;66.70
47825;DHT22;33589;48.242;14.676;2023-05-27T04:43:52;18.80;66.90
47825;DHT22;33589;48.242;14.676;2023-05-27T04:46:23;18.80;66.80
47825;DHT22;33589;48.242;14.676;2023-05-27T04:48:52;18.80;66.80
47825;DHT22;33589;48.242;14.676;2023-05-27T04:51:18;18.80;66.90
47825;DHT22;33589;48.242;14.676;2023-05-27T04:53:45;18.80;66.90
47825;DHT22;33589;48.242;14.676;2023-05-27T04:56:14;18.80;66.70
47825;DHT22;33589;48.242;14.676;2023-05-27T04:58:41;18.80;66.90
47825;DHT22;33589;48.242;14.676;2023-05-27T05:01:09;18.90;66.70
47825;DHT22;33589;48.242;14.676;2023-05-27T05:03:45;18.90;66.80
47825;DHT22;33589;48.242;14.676;2023-05-27T05:06:53;18.90;66.60
47825;DHT22;33589;48.242;14.676;2023-05-27T05:09:21;18.90;66.70
47825;DHT22;33589;48.242;14.676;2023-05-27T05:11:47;19.00;66.60
47825;DHT22;33589;48.242;14.676;2023-05-27T05:14:13;19.10;66.60
47825;DHT22;33589;48.242;14.676;2023-05-27T05:16:38;19.10;66.70
47825;DHT22;33589;48.242;14.676;2023-05-27T05:19:06;19.10;66.50
47825;DHT22;33589;48.242;14.676;2023-05-27T05:21:35;19.20;66.30
47825;DHT22;33589;48.242;14.676;2023-05-27T05:24:03;19.10;66.20
47825;DHT22;33589;48.242;14.676;2023-05-27T05:26:29;19.30;66.50
47825;DHT22;33589;48.242;14.676;2023-05-27T05:28:55;19.40;66.20
47825;DHT22;33589;48.242;14.676;2023-05-27T05:31:21;19.50;65.90
47825;DHT22;33589;48.242;14.676;2023-05-27T05:33:47;19.70;66.00
47825;DHT22;33589;48.242;14.676;2023-05-27T05:36:13;19.80;65.90
47825;DHT22;33589;48.242;14.676;2023-05-27T05:38:52;19.90;66.30
47825;DHT22;33589;48.242;14.676;2023-05-27T05:41:18;20.10;66.40
47825;DHT22;33589;48.242;14.676;2023-05-27T05:43:45;20.10;62.90
47825;DHT22;33589;48.242;14.676;2023-05-27T05:46:10;20.30;63.30
47825;DHT22;33589;48.242;14.676;2023-05-27T05:48:36;20.50;63.00
47825;DHT22;33589;48.242;14.676;2023-05-27T05:51:02;20.70;61.30
47825;DHT22;33589;48.242;14.676;2023-05-27T05:53:28;20.90;61.20
47825;DHT22;33589;48.242;14.676;2023-05-27T05:55:54;20.90;59.20
47825;DHT22;33589;48.242;14.676;2023-05-27T05:58:20;20.90;58.90
47825;DHT22;33589;48.242;14.676;2023-05-27T06:00:48;21.00;58.50
47825;DHT22;33589;48.242;14.676;2023-05-27T06:03:36;21.10;58.00
47825;DHT22;33589;48.242;14.676;2023-05-27T06:06:04;21.10;58.00
47825;DHT22;33589;48.242;14.676;2023-05-27T06:08:31;21.20;58.00
47825;DHT22;33589;48.242;14.676;2023-05-27T06:11:16;21.30;57.60
47825;DHT22;33589;48.242;14.676;2023-05-27T06:13:43;21.50;57.40
47825;DHT22;33589;48.242;14.676;2023-05-27T06:16:11;21.40;56.70
47825;DHT22;33589;48.242;14.676;2023-05-27T06:18:37;21.50;57.10
47825;DHT22;33589;48.242;14.676;2023-05-27T06:21:03;21.60;56.70
47825;DHT22;33589;48.242;14.676;2023-05-27T06:23:37;21.60;56.80
47825;DHT22;33589;48.242;14.676;2023-05-27T06:26:13;21.70;56.70
47825;DHT22;33589;48.242;14.676;2023-05-27T06:28:45;21.90;56.40
47825;DHT22;33589;48.242;14.676;2023-05-27T06:31:12;22.00;56.30
47825;DHT22;33589;48.242;14.676;2023-05-27T06:33:40;22.10;56.20
47825;DHT22;33589;48.242;14.676;2023-05-27T06:36:06;22.20;56.30
47825;DHT22;33589;48.242;14.676;2023-05-27T06:38:32;22.30;55.70
47825;DHT22;33589;48.242;14.676;2023-05-27T06:40:58;22.30;55.20
47825;DHT22;33589;48.242;14.676;2023-05-27T06:43:23;22.50;55.40
47825;DHT22;33589;48.242;14.676;2023-05-27T06:46:15;22.50;55.00
47825;DHT22;33589;48.242;14.676;2023-05-27T06:48:50;22.50;55.00
47825;DHT22;33589;48.242;14.676;2023-05-27T06:51:16;22.50;55.10
47825;DHT22;33589;48.242;14.676;2023-05-27T06:53:42;22.70;55.20
47825;DHT22;33589;48.242;14.676;2023-05-27T06:56:12;22.80;55.00
47825;DHT22;33589;48.242;14.676;2023-05-27T06:58:57;23.00;55.10
47825;DHT22;33589;48.242;14.676;2023-05-27T07:01:23;23.00;54.70
47825;DHT22;33589;48.242;14.676;2023-05-27T07:03:52;23.10;54.20
47825;DHT22;33589;48.242;14.676;2023-05-27T07:06:36;23.20;54.60
47825;DHT22;33589;48.242;14.676;2023-05-27T07:09:03;23.20;54.10
47825;DHT22;33589;48.242;14.676;2023-05-27T07:11:32;23.20;54.20
47825;DHT22;33589;48.242;14.676;2023-05-27T07:14:02;23.30;53.90
47825;DHT22;33589;48.242;14.676;2023-05-27T07:16:31;23.40;53.60
47825;DHT22;33589;48.242;14.676;2023-05-27T07:18:57;23.40;53.90
47825;DHT22;33589;48.242;14.676;2023-05-27T07:21:23;23.50;54.10
47825;DHT22;33589;48.242;14.676;2023-05-27T07:23:49;23.50;55.40
47825;DHT22;33589;48.242;14.676;2023-05-27T07:26:24;23.60;56.00
47825;DHT22;33589;48.242;14.676;2023-05-27T07:28:51;23.80;55.70
47825;DHT22;33589;48.242;14.676;2023-05-27T07:31:30;23.80;56.10
47825;DHT22;33589;48.242;14.676;2023-05-27T07:34:00;23.90;55.80
47825;DHT22;33589;48.242;14.676;2023-05-27T07:36:25;24.10;55.80
47825;DHT22;33589;48.242;14.676;2023-05-27T07:38:51;24.30;55.70
47825;DHT22;33589;48.242;14.676;2023-05-27T07:41:18;24.40;55.20
47825;DHT22;33589;48.242;14.676;2023-05-27T07:43:44;24.50;55.20
47825;DHT22;33589;48.242;14.676;2023-05-27T07:46:09;24.90;55.10
47825;DHT22;33589;48.242;14.676;2023-05-27T07:48:38;25.20;54.40
47825;DHT22;33589;48.242;14.676;2023-05-27T07:51:04;25.70;53.50
47825;DHT22;33589;48.242;14.676;2023-05-27T07:53:30;26.20;52.80
47825;DHT22;33589;48.242;14.676;2023-05-27T07:55:56;26.70;50.60
47825;DHT22;33589;48.242;14.676;2023-05-27T07:58:22;27.00;50.60
47825;DHT22;33589;48.242;14.676;2023-05-27T08:00:57;27.30;50.10
47825;DHT22;33589;48.242;14.676;2023-05-27T08:03:23;27.30;49.50
47825;DHT22;33589;48.242;14.676;2023-05-27T08:06:11;27.10;49.70
47825;DHT22;33589;48.242;14.676;2023-05-27T08:08:46;27.30;49.20
47825;DHT22;33589;48.242;14.676;2023-05-27T08:11:39;27.50;46.70
47825;DHT22;33589;48.242;14.676;2023-05-27T08:14:25;28.10;46.80
47825;DHT22;33589;48.242;14.676;2023-05-27T08:17:11;28.80;44.40
47825;DHT22;33589;48.242;14.676;2023-05-27T08:19:55;30.00;42.20
47825;DHT22;33589;48.242;14.676;2023-05-27T08:22:41;31.40;39.60
47825;DHT22;33589;48.242;14.676;2023-05-27T08:25:33;33.00;37.50
47825;DHT22;33589;48.242;14.676;2023-05-27T08:28:26;34.70;35.00
47825;DHT22;33589;48.242;14.676;2023-05-27T08:31:08;35.70;33.40
47825;DHT22;33589;48.242;14.676;2023-05-27T08:33:39;36.70;31.40
47825;DHT22;33589;48.242;14.676;2023-05-27T08:36:06;37.70;30.00
47825;DHT22;33589;48.242;14.676;2023-05-27T08:38:32;37.90;29.60
47825;DHT22;33589;48.242;14.676;2023-05-27T08:41:18;37.90;29.70
47825;DHT22;33589;48.242;14.676;2023-05-27T08:43:45;37.40;29.80
47825;DHT22;33589;48.242;14.676;2023-05-27T08:46:12;36.60;30.40
47825;DHT22;33589;48.242;14.676;2023-05-27T08:48:38;34.60;32.80
47825;DHT22;33589;48.242;14.676;2023-05-27T08:51:05;31.60;37.20
47825;DHT22;33589;48.242;14.676;2023-05-27T08:53:31;29.50;40.30
47825;DHT22;33589;48.242;14.676;2023-05-27T08:56:00;28.30;42.10
47825;DHT22;33589;48.242;14.676;2023-05-27T08:58:27;27.50;43.60
47825;DHT22;33589;48.242;14.676;2023-05-27T09:00:56;26.90;44.80
47825;DHT22;33589;48.242;14.676;2023-05-27T09:03:24;26.60;45.60
47825;DHT22;33589;48.242;14.676;2023-05-27T09:05:51;26.20;46.10
47825;DHT22;33589;48.242;14.676;2023-05-27T09:08:17;26.00;46.90
47825;DHT22;33589;48.242;14.676;2023-05-27T09:10:43;25.70;47.50
47825;DHT22;33589;48.242;14.676;2023-05-27T09:13:09;25.60;48.10
47825;DHT22;33589;48.242;14.676;2023-05-27T09:15:34;25.50;48.00
47825;DHT22;33589;48.242;14.676;2023-05-27T09:18:02;25.40;48.50
47825;DHT22;33589;48.242;14.676;2023-05-27T09:20:31;25.40;48.80
47825;DHT22;33589;48.242;14.676;2023-05-27T09:23:01;25.30;49.10
47825;DHT22;33589;48.242;14.676;2023-05-27T09:25:28;25.30;48.70
47825;DHT22;33589;48.242;14.676;2023-05-27T09:27:54;25.30;49.10
47825;DHT22;33589;48.242;14.676;2023-05-27T09:30:21;25.20;49.30
47825;DHT22;33589;48.242;14.676;2023-05-27T09:32:47;25.10;49.30
47825;DHT22;33589;48.242;14.676;2023-05-27T09:35:16;25.10;49.60
47825;DHT22;33589;48.242;14.676;2023-05-27T09:37:42;25.10;50.00
47825;DHT22;33589;48.242;14.676;2023-05-27T09:40:11;25.10;49.80
47825;DHT22;33589;48.242;14.676;2023-05-27T09:42:40;25.20;49.80
47825;DHT22;33589;48.242;14.676;2023-05-27T09:45:10;25.10;49.60
47825;DHT22;33589;48.242;14.676;2023-05-27T09:47:39;25.10;49.90
47825;DHT22;33589;48.242;14.676;2023-05-27T09:50:08;25.10;50.00
47825;DHT22;33589;48.242;14.676;2023-05-27T09:52:36;25.10;49.90
47825;DHT22;33589;48.242;14.676;2023-05-27T09:55:04;25.10;50.20
47825;DHT22;33589;48.242;14.676;2023-05-27T09:57:31;25.00;50.50
47825;DHT22;33589;48.242;14.676;2023-05-27T09:59:59;25.00;51.00
47825;DHT22;33589;48.242;14.676;2023-05-27T10:02:25;25.10;51.00
47825;DHT22;33589;48.242;14.676;2023-05-27T10:04:53;25.10;50.40
47825;DHT22;33589;48.242;14.676;2023-05-27T10:07:19;25.20;50.40
47825;DHT22;33589;48.242;14.676;2023-05-27T10:09:47;25.10;50.20
47825;DHT22;33589;48.242;14.676;2023-05-27T10:12:14;25.10;50.40
47825;DHT22;33589;48.242;14.676;2023-05-27T10:14:42;25.10;50.20
47825;DHT22;33589;48.242;14.676;2023-05-27T10:17:09;25.10;50.80
47825;DHT22;33589;48.242;14.676;2023-05-27T10:19:36;25.10;50.90
47825;DHT22;33589;48.242;14.676;2023-05-27T10:22:10;25.10;51.20
47825;DHT22;33589;48.242;14.676;2023-05-27T10:24:36;25.10;51.40
47825;DHT22;33589;48.242;14.676;2023-05-27T10:27:05;25.20;50.90
47825;DHT22;33589;48.242;14.676;2023-05-27T10:29:38;25.20;51.00
47825;DHT22;33589;48.242;14.676;2023-05-27T10:32:05;25.20;50.90
47825;DHT22;33589;48.242;14.676;2023-05-27T10:34:37;25.20;51.00
47825;DHT22;33589;48.242;14.676;2023-05-27T10:37:07;25.10;51.20
47825;DHT22;33589;48.242;14.676;2023-05-27T10:39:33;25.10;51.10
47825;DHT22;33589;48.242;14.676;2023-05-27T10:41:59;25.10;50.80
47825;DHT22;33589;48.242;14.676;2023-05-27T10:44:29;25.00;50.90
47825;DHT22;33589;48.242;14.676;2023-05-27T10:47:03;25.00;51.30
47825;DHT22;33589;48.242;14.676;2023-05-27T10:49:33;24.90;51.40
47825;DHT22;33589;48.242;14.676;2023-05-27T10:52:10;24.90;51.00
47825;DHT22;33589;48.242;14.676;2023-05-27T10:54:41;24.90;51.30
47825;DHT22;33589;48.242;14.676;2023-05-27T10:57:07;24.90;51.30
47825;DHT22;33589;48.242;14.676;2023-05-27T10:59:50;24.80;51.90
47825;DHT22;33589;48.242;14.676;2023-05-27T11:02:17;24.80;52.10
47825;DHT22;33589;48.242;14.676;2023-05-27T11:04:42;24.80;52.30
47825;DHT22;33589;48.242;14.676;2023-05-27T11:07:08;24.90;51.50
47825;DHT22;33589;48.242;14.676;2023-05-27T11:09:54;24.90;51.70
47825;DHT22;33589;48.242;14.676;2023-05-27T11:12:22;24.90;51.70
47825;DHT22;33589;48.242;14.676;2023-05-27T11:14:49;24.90;52.00
47825;DHT22;33589;48.242;14.676;2023-05-27T11:17:16;25.00;52.00
47825;DHT22;33589;48.242;14.676;2023-05-27T11:19:43;25.00;52.10
47825;DHT22;33589;48.242;14.676;2023-05-27T11:22:11;25.10;51.90
47825;DHT22;33589;48.242;14.676;2023-05-27T11:24:37;25.10;51.80
47825;DHT22;33589;48.242;14.676;2023-05-27T11:29:39;25.10;51.60
47825;DHT22;33589;48.242;14.676;2023-05-27T11:32:05;25.00;51.90
47825;DHT22;33589;48.242;14.676;2023-05-27T11:34:34;25.00;51.90
47825;DHT22;33589;48.242;14.676;2023-05-27T11:37:04;25.00;52.10
47825;DHT22;33589;48.242;14.676;2023-05-27T11:39:31;25.10;52.40
47825;DHT22;33589;48.242;14.676;2023-05-27T11:41:57;25.10;51.70
47825;DHT22;33589;48.242;14.676;2023-05-27T11:44:24;25.10;52.00
47825;DHT22;33589;48.242;14.676;2023-05-27T11:46:52;25.10;52.00
47825;DHT22;33589;48.242;14.676;2023-05-27T11:49:23;25.10;52.30
47825;DHT22;33589;48.242;14.676;2023-05-27T11:51:49;25.10;51.90
47825;DHT22;33589;48.242;14.676;2023-05-27T11:54:23;25.00;52.40
47825;DHT22;33589;48.242;14.676;2023-05-27T11:56:50;25.10;52.60
47825;DHT22;33589;48.242;14.676;2023-05-27T11:59:17;25.10;51.60
47825;DHT22;33589;48.242;14.676;2023-05-27T12:01:43;25.00;52.10
47825;DHT22;33589;48.242;14.676;2023-05-27T12:04:10;25.00;52.50
47825;DHT22;33589;48.242;14.676;2023-05-27T12:06:36;25.00;52.40
47825;DHT22;33589;48.242;14.676;2023-05-27T12:09:05;25.00;52.50
47825;DHT22;33589;48.242;14.676;2023-05-27T12:11:32;25.10;52.40
47825;DHT22;33589;48.242;14.676;2023-05-27T12:13:58;25.10;52.50
47825;DHT22;33589;48.242;14.676;2023-05-27T12:16:24;25.10;52.30
47825;DHT22;33589;48.242;14.676;2023-05-27T12:18:50;25.10;52.30
47825;DHT22;33589;48.242;14.676;2023-05-27T12:21:16;25.10;52.30
47825;DHT22;33589;48.242;14.676;2023-05-27T12:23:42;25.10;52.20
47825;DHT22;33589;48.242;14.676;2023-05-27T12:26:08;25.20;52.50
47825;DHT22;33589;48.242;14.676;2023-05-27T12:28:35;25.20;52.20
47825;DHT22;33589;48.242;14.676;2023-05-27T12:31:02;25.30;51.80
47825;DHT22;33589;48.242;14.676;2023-05-27T12:33:27;25.30;51.90
47825;DHT22;33589;48.242;14.676;2023-05-27T12:35:53;25.40;52.00
47825;DHT22;33589;48.242;14.676;2023-05-27T12:38:19;25.40;51.50
47825;DHT22;33589;48.242;14.676;2023-05-27T12:40:45;25.40;51.90
47825;DHT22;33589;48.242;14.676;2023-05-27T12:43:11;25.40;52.00
47825;DHT22;33589;48.242;14.676;2023-05-27T12:45:36;25.40;52.70
47825;DHT22;33589;48.242;14.676;2023-05-27T12:48:02;25.40;52.30
47825;DHT22;33589;48.242;14.676;2023-05-27T12:50:28;25.30;52.40
47825;DHT22;33589;48.242;14.676;2023-05-27T12:52:54;25.30;52.80
47825;DHT22;33589;48.242;14.676;2023-05-27T12:55:21;25.30;52.50
47825;DHT22;33589;48.242;14.676;2023-05-27T12:57:48;25.30;52.40
47825;DHT22;33589;48.242;14.676;2023-05-27T13:00:15;25.30;52.20
47825;DHT22;33589;48.242;14.676;2023-05-27T13:02:41;25.40;52.40
47825;DHT22;33589;48.242;14.676;2023-05-27T13:05:08;25.50;51.90
47825;DHT22;33589;48.242;14.676;2023-05-27T13:07:35;25.60;51.80
47825;DHT22;33589;48.242;14.676;2023-05-27T13:10:02;25.70;51.10
47825;DHT22;33589;48.242;14.676;2023-05-27T13:12:30;25.70;51.10
47825;DHT22;33589;48.242;14.676;2023-05-27T13:14:57;25.70;51.30
47825;DHT22;33589;48.242;14.676;2023-05-27T13:17:23;25.70;51.50
47825;DHT22;33589;48.242;14.676;2023-05-27T13:19:48;25.70;51.30
47825;DHT22;33589;48.242;14.676;2023-05-27T13:22:14;25.50;51.80
47825;DHT22;33589;48.242;14.676;2023-05-27T13:24:40;25.40;51.40
47825;DHT22;33589;48.242;14.676;2023-05-27T13:27:07;25.30;51.70
47825;DHT22;33589;48.242;14.676;2023-05-27T13:29:34;25.20;52.40
47825;DHT22;33589;48.242;14.676;2023-05-27T13:32:00;25.10;52.40
47825;DHT22;33589;48.242;14.676;2023-05-27T13:34:25;24.90;52.90
47825;DHT22;33589;48.242;14.676;2023-05-27T13:36:52;24.80;53.30
47825;DHT22;33589;48.242;14.676;2023-05-27T13:39:18;24.70;54.20
47825;DHT22;33589;48.242;14.676;2023-05-27T13:41:44;24.60;54.10
47825;DHT22;33589;48.242;14.676;2023-05-27T13:44:09;24.50;54.40
47825;DHT22;33589;48.242;14.676;2023-05-27T13:46:35;24.50;55.50
47825;DHT22;33589;48.242;14.676;2023-05-27T13:49:01;24.40;56.50
47825;DHT22;33589;48.242;14.676;2023-05-27T13:51:29;24.40;57.50
47825;DHT22;33589;48.242;14.676;2023-05-27T13:53:56;24.30;57.90
47825;DHT22;33589;48.242;14.676;2023-05-27T13:56:21;24.30;57.50
47825;DHT22;33589;48.242;14.676;2023-05-27T13:58:51;24.30;57.90
47825;DHT22;33589;48.242;14.676;2023-05-27T14:01:18;24.30;58.10
47825;DHT22;33589;48.242;14.676;2023-05-27T14:03:43;24.30;58.60
47825;DHT22;33589;48.242;14.676;2023-05-27T14:06:09;24.30;58.60
47825;DHT22;33589;48.242;14.676;2023-05-27T14:08:35;24.30;58.80
47825;DHT22;33589;48.242;14.676;2023-05-27T14:11:02;24.30;58.80
47825;DHT22;33589;48.242;14.676;2023-05-27T14:13:27;24.20;59.00
47825;DHT22;33589;48.242;14.676;2023-05-27T14:15:53;24.20;58.90
47825;DHT22;33589;48.242;14.676;2023-05-27T14:18:19;24.10;58.00
47825;DHT22;33589;48.242;14.676;2023-05-27T14:20:45;24.10;58.60
47825;DHT22;33589;48.242;14.676;2023-05-27T14:23:11;24.10;58.00
47825;DHT22;33589;48.242;14.676;2023-05-27T14:25:38;24.10;58.10
47825;DHT22;33589;48.242;14.676;2023-05-27T14:28:04;24.00;57.90
47825;DHT22;33589;48.242;14.676;2023-05-27T14:30:32;24.00;57.80
47825;DHT22;33589;48.242;14.676;2023-05-27T14:33:05;24.00;58.00
47825;DHT22;33589;48.242;14.676;2023-05-27T14:35:37;24.00;58.60
47825;DHT22;33589;48.242;14.676;2023-05-27T14:38:04;24.00;59.00
47825;DHT22;33589;48.242;14.676;2023-05-27T14:40:30;24.00;59.00
47825;DHT22;33589;48.242;14.676;2023-05-27T14:42:56;23.90;59.30
47825;DHT22;33589;48.242;14.676;2023-05-27T14:45:22;23.90;59.50
47825;DHT22;33589;48.242;14.676;2023-05-27T14:47:51;23.90;59.90
47825;DHT22;33589;48.242;14.676;2023-05-27T14:50:21;23.70;60.50
47825;DHT22;33589;48.242;14.676;2023-05-27T14:52:48;23.80;61.70
47825;DHT22;33589;48.242;14.676;2023-05-27T14:55:14;23.70;62.10
47825;DHT22;33589;48.242;14.676;2023-05-27T14:57:40;23.70;63.00
47825;DHT22;33589;48.242;14.676;2023-05-27T15:00:06;23.70;63.30
47825;DHT22;33589;48.242;14.676;2023-05-27T15:02:35;23.70;64.90
47825;DHT22;33589;48.242;14.676;2023-05-27T15:05:05;23.70;64.40
47825;DHT22;33589;48.242;14.676;2023-05-27T15:07:35;23.60;64.50
47825;DHT22;33589;48.242;14.676;2023-05-27T15:10:02;23.70;64.30
47825;DHT22;33589;48.242;14.676;2023-05-27T15:12:41;23.60;64.00
47825;DHT22;33589;48.242;14.676;2023-05-27T15:15:10;23.60;64.20
47825;DHT22;33589;48.242;14.676;2023-05-27T15:17:36;23.60;64.20
47825;DHT22;33589;48.242;14.676;2023-05-27T15:20:03;23.60;63.80
47825;DHT22;33589;48.242;14.676;2023-05-27T15:22:29;23.70;63.70
47825;DHT22;33589;48.242;14.676;2023-05-27T15:24:54;23.70;63.40
47825;DHT22;33589;48.242;14.676;2023-05-27T15:27:20;23.80;64.00